sensor_id;sensor_type;location;lat;lon;timestamp;pressure;altitude;pressure_sealevel;temperature;humidity
82033;BME280;71595;52.180;4.512;2024-02-04T00:00:13;102468.16;;;9.48;89.43
82033;BME280;71595;52.180;4.512;2024-02-04T00:02:39;102472.34;;;9.46;89.50
82033;BME280;71595;52.180;4.512;2024-02-04T00:05:04;102463.44;;;9.49;89.91
82033;BME280;71595;52.180;4.512;2024-02-04T00:07:29;102465.91;;;9.50;89.79
82033;BME280;71595;52.180;4.512;2024-02-04T00:09:55;102462.03;;;9.51;89.87
82033;BME280;71595;52.180;4.512;2024-02-04T00:12:20;102464.00;;;9.51;89.77
82033;BME280;71595;52.180;4.512;2024-02-04T00:14:46;102463.69;;;9.52;89.46
82033;BME280;71595;52.180;4.512;2024-02-04T00:17:13;102468.09;;;9.53;89.57
82033;BME280;71595;52.180;4.512;2024-02-04T00:19:40;102459.81;;;9.53;89.40
82033;BME280;71595;52.180;4.512;2024-02-04T00:22:05;102459.28;;;9.51;89.21
82033;BME280;71595;52.180;4.512;2024-02-04T00:24:30;102454.59;;;9.52;89.38
82033;BME280;71595;52.180;4.512;2024-02-04T00:26:56;102450.19;;;9.51;89.34
82033;BME280;71595;52.180;4.512;2024-02-04T00:29:21;102444.97;;;9.49;89.41
82033;BME280;71595;52.180;4.512;2024-02-04T00:31:46;102444.13;;;9.49;89.51
82033;BME280;71595;52.180;4.512;2024-02-04T00:34:12;102448.25;;;9.51;89.27
82033;BME280;71595;52.180;4.512;2024-02-04T00:36:37;102450.50;;;9.49;89.42
82033;BME280;71595;52.180;4.512;2024-02-04T00:39:02;102442.50;;;9.48;89.53
82033;BME280;71595;52.180;4.512;2024-02-04T00:41:29;102441.69;;;9.47;89.49
82033;BME280;71595;52.180;4.512;2024-02-04T00:43:54;102440.84;;;9.47;89.69
82033;BME280;71595;52.180;4.512;2024-02-04T00:46:20;102431.78;;;9.46;89.51
82033;BME280;71595;52.180;4.512;2024-02-04T00:48:45;102427.28;;;9.50;89.52
82033;BME280;71595;52.180;4.512;2024-02-04T00:51:10;102423.50;;;9.46;89.62
82033;BME280;71595;52.180;4.512;2024-02-04T00:53:38;102414.13;;;9.47;89.82
82033;BME280;71595;52.180;4.512;2024-02-04T00:56:04;102410.22;;;9.48;89.73
82033;BME280;71595;52.180;4.512;2024-02-04T00:58:29;102408.63;;;9.47;89.80
82033;BME280;71595;52.180;4.512;2024-02-04T01:00:54;102412.69;;;9.50;90.24
82033;BME280;71595;52.180;4.512;2024-02-04T01:03:20;102403.09;;;9.47;90.02
82033;BME280;71595;52.180;4.512;2024-02-04T01:05:45;102408.63;;;9.47;89.92
82033;BME280;71595;52.180;4.512;2024-02-04T01:08:10;102399.19;;;9.48;90.17
82033;BME280;71595;52.180;4.512;2024-02-04T01:10:36;102401.72;;;9.45;90.00
82033;BME280;71595;52.180;4.512;2024-02-04T01:13:01;102403.38;;;9.46;90.17
82033;BME280;71595;52.180;4.512;2024-02-04T01:15:26;102410.75;;;9.50;89.79
82033;BME280;71595;52.180;4.512;2024-02-04T01:17:52;102418.22;;;9.50;89.84
82033;BME280;71595;52.180;4.512;2024-02-04T01:20:17;102422.41;;;9.47;89.98
82033;BME280;71595;52.180;4.512;2024-02-04T01:22:43;102429.03;;;9.46;89.93
82033;BME280;71595;52.180;4.512;2024-02-04T01:25:08;102427.38;;;9.45;89.79
82033;BME280;71595;52.180;4.512;2024-02-04T01:27:34;102424.59;;;9.45;89.94
82033;BME280;71595;52.180;4.512;2024-02-04T01:29:59;102423.22;;;9.48;89.51
82033;BME280;71595;52.180;4.512;2024-02-04T01:32:25;102416.88;;;9.47;89.69
82033;BME280;71595;52.180;4.512;2024-02-04T01:34:50;102423.78;;;9.45;89.82
82033;BME280;71595;52.180;4.512;2024-02-04T01:37:15;102425.97;;;9.48;89.72
82033;BME280;71595;52.180;4.512;2024-02-04T01:39:40;102434.53;;;9.46;89.73
82033;BME280;71595;52.180;4.512;2024-02-04T01:42:06;102429.59;;;9.43;89.54
82033;BME280;71595;52.180;4.512;2024-02-04T01:44:31;102437.88;;;9.43;89.60
82033;BME280;71595;52.180;4.512;2024-02-04T01:46:57;102436.78;;;9.44;89.79
82033;BME280;71595;52.180;4.512;2024-02-04T01:49:22;102442.03;;;9.41;89.51
82033;BME280;71595;52.180;4.512;2024-02-04T01:51:48;102437.09;;;9.38;89.67
82033;BME280;71595;52.180;4.512;2024-02-04T01:54:14;102437.09;;;9.38;89.34
82033;BME280;71595;52.180;4.512;2024-02-04T01:56:39;102434.06;;;9.39;89.29
82033;BME280;71595;52.180;4.512;2024-02-04T01:59:05;102434.91;;;9.40;89.15
82033;BME280;71595;52.180;4.512;2024-02-04T02:01:31;102436.81;;;9.39;89.05
82033;BME280;71595;52.180;4.512;2024-02-04T02:03:57;102428.53;;;9.39;88.72
82033;BME280;71595;52.180;4.512;2024-02-04T02:06:23;102438.53;;;9.35;88.88
82033;BME280;71595;52.180;4.512;2024-02-04T02:08:49;102444.03;;;9.35;88.82
82033;BME280;71595;52.180;4.512;2024-02-04T02:11:21;102443.19;;;9.34;88.48
82033;BME280;71595;52.180;4.512;2024-02-04T02:13:56;102430.28;;;9.30;88.07
82033;BME280;71595;52.180;4.512;2024-02-04T02:16:24;102426.72;;;9.29;88.34
82033;BME280;71595;52.180;4.512;2024-02-04T02:18:53;102427.00;;;9.28;88.36
82033;BME280;71595;52.180;4.512;2024-02-04T02:21:44;102415.75;;;9.24;88.39
82033;BME280;71595;52.180;4.512;2024-02-04T02:24:32;102425.41;;;9.22;88.26
82033;BME280;71595;52.180;4.512;2024-02-04T02:26:58;102436.75;;;9.20;88.33
82033;BME280;71595;52.180;4.512;2024-02-04T02:29:24;102429.06;;;9.17;88.32
82033;BME280;71595;52.180;4.512;2024-02-04T02:31:49;102423.84;;;9.15;88.25
82033;BME280;71595;52.180;4.512;2024-02-04T02:34:15;102422.19;;;9.14;88.52
82033;BME280;71595;52.180;4.512;2024-02-04T02:36:45;102418.59;;;9.14;88.23
82033;BME280;71595;52.180;4.512;2024-02-04T02:39:27;102415.03;;;9.13;88.13
82033;BME280;71595;52.180;4.512;2024-02-04T02:41:57;102418.91;;;9.12;87.82
82033;BME280;71595;52.180;4.512;2024-02-04T02:44:25;102426.66;;;9.10;87.77
82033;BME280;71595;52.180;4.512;2024-02-04T02:46:54;102430.50;;;9.09;87.42
82033;BME280;71595;52.180;4.512;2024-02-04T02:49:21;102442.63;;;9.08;87.17
82033;BME280;71595;52.180;4.512;2024-02-04T02:51:46;102430.00;;;9.07;87.08
82033;BME280;71595;52.180;4.512;2024-02-04T02:54:11;102422.81;;;9.06;86.89
82033;BME280;71595;52.180;4.512;2024-02-04T02:56:37;102414.84;;;9.05;86.79
82033;BME280;71595;52.180;4.512;2024-02-04T02:59:03;102408.22;;;9.06;86.55
82033;BME280;71595;52.180;4.512;2024-02-04T03:01:28;102410.13;;;9.10;86.30
82033;BME280;71595;52.180;4.512;2024-02-04T03:03:54;102415.91;;;9.09;86.05
82033;BME280;71595;52.180;4.512;2024-02-04T03:06:19;102412.31;;;9.08;85.95
82033;BME280;71595;52.180;4.512;2024-02-04T03:08:45;102412.91;;;9.05;86.07
82033;BME280;71595;52.180;4.512;2024-02-04T03:11:10;102408.22;;;9.06;86.21
82033;BME280;71595;52.180;4.512;2024-02-04T03:13:37;102422.81;;;9.06;86.31
82033;BME280;71595;52.180;4.512;2024-02-04T03:16:03;102414.56;;;9.06;86.42
82033;BME280;71595;52.180;4.512;2024-02-04T03:18:28;102409.84;;;9.07;86.22
82033;BME280;71595;52.180;4.512;2024-02-04T03:20:53;102411.28;;;9.04;85.92
82033;BME280;71595;52.180;4.512;2024-02-04T03:23:25;102400.00;;;9.00;86.21
82033;BME280;71595;52.180;4.512;2024-02-04T03:25:50;102397.53;;;8.99;86.11
82033;BME280;71595;52.180;4.512;2024-02-04T03:28:15;102408.53;;;8.99;86.25
82033;BME280;71595;52.180;4.512;2024-02-04T03:30:41;102407.44;;;9.00;86.52
82033;BME280;71595;52.180;4.512;2024-02-04T03:33:06;102402.75;;;9.00;86.87
82033;BME280;71595;52.180;4.512;2024-02-04T03:35:31;102415.13;;;9.03;87.13
82033;BME280;71595;52.180;4.512;2024-02-04T03:37:57;102421.47;;;9.04;87.29
82033;BME280;71595;52.180;4.512;2024-02-04T03:40:22;102427.22;;;9.07;87.57
82033;BME280;71595;52.180;4.512;2024-02-04T03:42:49;102416.78;;;9.04;87.62
82033;BME280;71595;52.180;4.512;2024-02-04T03:45:15;102418.97;;;9.07;87.54
82033;BME280;71595;52.180;4.512;2024-02-04T03:47:40;102429.44;;;9.05;87.75
82033;BME280;71595;52.180;4.512;2024-02-04T03:50:05;102436.59;;;9.06;87.81
82033;BME280;71595;52.180;4.512;2024-02-04T03:52:31;102420.88;;;9.07;88.11
82033;BME280;71595;52.180;4.512;2024-02-04T03:54:56;102412.09;;;9.05;88.15
82033;BME280;71595;52.180;4.512;2024-02-04T03:57:24;102409.03;;;9.06;88.14
82033;BME280;71595;52.180;4.512;2024-02-04T03:59:49;102410.13;;;9.05;88.39
82033;BME280;71595;52.180;4.512;2024-02-04T04:02:15;102407.38;;;9.05;88.00
82033;BME280;71595;52.180;4.512;2024-02-04T04:04:40;102403.81;;;9.05;87.90
82033;BME280;71595;52.180;4.512;2024-02-04T04:07:12;102406.88;;;9.03;87.87
82033;BME280;71595;52.180;4.512;2024-02-04T04:09:37;102385.91;;;9.02;88.17
82033;BME280;71595;52.180;4.512;2024-02-04T04:12:03;102383.72;;;9.04;87.86
82033;BME280;71595;52.180;4.512;2024-02-04T04:14:28;102376.56;;;9.03;87.90
82033;BME280;71595;52.180;4.512;2024-02-04T04:16:54;102368.81;;;9.05;87.66
82033;BME280;71595;52.180;4.512;2024-02-04T04:19:19;102374.31;;;9.05;87.62
82033;BME280;71595;52.180;4.512;2024-02-04T04:21:44;102377.38;;;9.04;87.54
82033;BME280;71595;52.180;4.512;2024-02-04T04:24:10;102376.56;;;9.03;87.29
82033;BME280;71595;52.180;4.512;2024-02-04T04:26:35;102381.47;;;9.06;87.35
82033;BME280;71595;52.180;4.512;2024-02-04T04:29:00;102377.38;;;9.04;87.00
82033;BME280;71595;52.180;4.512;2024-02-04T04:31:26;102373.78;;;9.03;87.07
82033;BME280;71595;52.180;4.512;2024-02-04T04:33:51;102369.38;;;9.02;86.80
82033;BME280;71595;52.180;4.512;2024-02-04T04:36:18;102371.63;;;9.00;86.50
82033;BME280;71595;52.180;4.512;2024-02-04T04:38:44;102363.06;;;9.02;86.60
82033;BME280;71595;52.180;4.512;2024-02-04T04:41:09;102366.91;;;9.00;86.38
82033;BME280;71595;52.180;4.512;2024-02-04T04:43:37;102367.22;;;8.99;86.26
82033;BME280;71595;52.180;4.512;2024-02-04T04:46:03;102364.47;;;8.99;85.75
82033;BME280;71595;52.180;4.512;2024-02-04T04:48:29;102358.13;;;8.98;85.68
82033;BME280;71595;52.180;4.512;2024-02-04T04:50:54;102384.88;;;8.98;86.08
82033;BME280;71595;52.180;4.512;2024-02-04T04:53:19;102348.75;;;8.99;85.70
82033;BME280;71595;52.180;4.512;2024-02-04T04:55:44;102350.94;;;9.03;86.43
82033;BME280;71595;52.180;4.512;2024-02-04T04:58:10;102349.00;;;9.03;86.56
82033;BME280;71595;52.180;4.512;2024-02-04T05:00:35;102353.69;;;9.03;87.16
82033;BME280;71595;52.180;4.512;2024-02-04T05:03:00;102352.63;;;8.98;87.51
82033;BME280;71595;52.180;4.512;2024-02-04T05:05:25;102364.72;;;9.03;87.78
82033;BME280;71595;52.180;4.512;2024-02-04T05:07:52;102355.31;;;9.04;87.77
82033;BME280;71595;52.180;4.512;2024-02-04T05:10:17;102351.75;;;9.03;87.63
82033;BME280;71595;52.180;4.512;2024-02-04T05:12:43;102335.72;;;9.05;88.04
82033;BME280;71595;52.180;4.512;2024-02-04T05:15:08;102342.09;;;9.06;88.09
82033;BME280;71595;52.180;4.512;2024-02-04T05:17:34;102324.41;;;9.07;88.23
82033;BME280;71595;52.180;4.512;2024-02-04T05:20:00;102324.13;;;9.08;88.09
82033;BME280;71595;52.180;4.512;2024-02-04T05:22:27;102318.59;;;9.08;88.29
82033;BME280;71595;52.180;4.512;2024-02-04T05:24:52;102312.50;;;9.11;88.49
82033;BME280;71595;52.180;4.512;2024-02-04T05:27:18;102324.09;;;9.13;88.44
82033;BME280;71595;52.180;4.512;2024-02-04T05:29:43;102341.50;;;9.09;88.81
82033;BME280;71595;52.180;4.512;2024-02-04T05:32:08;102334.34;;;9.08;88.81
82033;BME280;71595;52.180;4.512;2024-02-04T05:34:34;102331.28;;;9.09;88.73
82033;BME280;71595;52.180;4.512;2024-02-04T05:36:59;102327.44;;;9.10;89.00
82033;BME280;71595;52.180;4.512;2024-02-04T05:39:25;102315.84;;;9.08;89.10
82033;BME280;71595;52.180;4.512;2024-02-04T05:41:50;102322.22;;;9.09;89.16
82033;BME280;71595;52.180;4.512;2024-02-04T05:44:15;102305.97;;;9.07;89.32
82033;BME280;71595;52.180;4.512;2024-02-04T05:46:40;102303.66;;;9.14;89.06
82033;BME280;71595;52.180;4.512;2024-02-04T05:49:06;102302.56;;;9.15;89.10
82033;BME280;71595;52.180;4.512;2024-02-04T05:51:32;102308.06;;;9.15;89.03
82033;BME280;71595;52.180;4.512;2024-02-04T05:53:58;102312.75;;;9.15;88.80
82033;BME280;71595;52.180;4.512;2024-02-04T05:56:24;102305.59;;;9.14;89.05
82033;BME280;71595;52.180;4.512;2024-02-04T05:58:49;102312.47;;;9.16;89.26
82033;BME280;71595;52.180;4.512;2024-02-04T06:01:15;102301.97;;;9.18;89.25
82033;BME280;71595;52.180;4.512;2024-02-04T06:03:42;102297.50;;;9.23;89.18
82033;BME280;71595;52.180;4.512;2024-02-04T06:06:08;102294.75;;;9.23;89.43
82033;BME280;71595;52.180;4.512;2024-02-04T06:08:33;102289.25;;;9.23;89.41
82033;BME280;71595;52.180;4.512;2024-02-04T06:10:58;102278.13;;;9.28;89.40
82033;BME280;71595;52.180;4.512;2024-02-04T06:13:24;102297.97;;;9.30;89.22
82033;BME280;71595;52.180;4.512;2024-02-04T06:15:49;102285.91;;;9.26;89.05
82033;BME280;71595;52.180;4.512;2024-02-04T06:18:14;102286.94;;;9.30;89.00
82033;BME280;71595;52.180;4.512;2024-02-04T06:20:39;102286.94;;;9.30;88.93
82033;BME280;71595;52.180;4.512;2024-02-04T06:23:05;102283.88;;;9.31;88.54
82033;BME280;71595;52.180;4.512;2024-02-04T06:25:31;102283.06;;;9.31;88.87
82033;BME280;71595;52.180;4.512;2024-02-04T06:27:56;102282.84;;;9.27;88.84
82033;BME280;71595;52.180;4.512;2024-02-04T06:30:21;102288.50;;;9.36;88.83
82033;BME280;71595;52.180;4.512;2024-02-04T06:32:50;102272.50;;;9.38;88.43
82033;BME280;71595;52.180;4.512;2024-02-04T06:35:15;102287.41;;;9.37;88.72
82033;BME280;71595;52.180;4.512;2024-02-04T06:37:41;102278.03;;;9.38;88.52
82033;BME280;71595;52.180;4.512;2024-02-04T06:40:09;102286.88;;;9.35;88.68
82033;BME280;71595;52.180;4.512;2024-02-04T06:42:35;102281.06;;;9.37;88.81
82033;BME280;71595;52.180;4.512;2024-02-04T06:45:00;102282.69;;;9.38;88.78
82033;BME280;71595;52.180;4.512;2024-02-04T06:47:25;102295.66;;;9.37;88.84
82033;BME280;71595;52.180;4.512;2024-02-04T06:49:51;102293.44;;;9.39;88.85
82033;BME280;71595;52.180;4.512;2024-02-04T06:52:16;102297.91;;;9.35;88.54
82033;BME280;71595;52.180;4.512;2024-02-04T06:54:41;102295.06;;;9.40;88.55
82033;BME280;71595;52.180;4.512;2024-02-04T06:57:06;102295.06;;;9.40;88.37
82033;BME280;71595;52.180;4.512;2024-02-04T06:59:32;102277.44;;;9.41;88.49
82033;BME280;71595;52.180;4.512;2024-02-04T07:01:57;102272.44;;;9.43;87.83
82033;BME280;71595;52.180;4.512;2024-02-04T07:04:22;102270.47;;;9.44;88.00
82033;BME280;71595;52.180;4.512;2024-02-04T07:06:49;102279.59;;;9.44;87.83
82033;BME280;71595;52.180;4.512;2024-02-04T07:09:15;102272.94;;;9.45;88.23
82033;BME280;71595;52.180;4.512;2024-02-04T07:11:40;102273.22;;;9.44;87.97
82033;BME280;71595;52.180;4.512;2024-02-04T07:14:06;102269.97;;;9.42;87.74
82033;BME280;71595;52.180;4.512;2024-02-04T07:16:31;102268.00;;;9.42;87.44
82033;BME280;71595;52.180;4.512;2024-02-04T07:18:57;102262.50;;;9.42;87.45
82033;BME280;71595;52.180;4.512;2024-02-04T07:21:22;102257.53;;;9.44;87.36
82033;BME280;71595;52.180;4.512;2024-02-04T07:23:47;102266.91;;;9.43;87.04
82033;BME280;71595;52.180;4.512;2024-02-04T07:26:13;102253.63;;;9.45;86.76
82033;BME280;71595;52.180;4.512;2024-02-04T07:28:38;102278.44;;;9.45;86.87
82033;BME280;71595;52.180;4.512;2024-02-04T07:31:04;102276.25;;;9.47;86.89
82033;BME280;71595;52.180;4.512;2024-02-04T07:33:29;102288.88;;;9.48;86.82
82033;BME280;71595;52.180;4.512;2024-02-04T07:35:54;102280.63;;;9.48;86.95
82033;BME280;71595;52.180;4.512;2024-02-04T07:38:20;102271.31;;;9.44;87.18
82033;BME280;71595;52.180;4.512;2024-02-04T07:40:45;102283.59;;;9.52;87.48
82033;BME280;71595;52.180;4.512;2024-02-04T07:43:10;102269.00;;;9.51;87.72
82033;BME280;71595;52.180;4.512;2024-02-04T07:45:35;102268.19;;;9.51;88.30
82033;BME280;71595;52.180;4.512;2024-02-04T07:48:01;102270.94;;;9.51;88.25
82033;BME280;71595;52.180;4.512;2024-02-04T07:50:27;102270.72;;;9.47;88.26
82033;BME280;71595;52.180;4.512;2024-02-04T07:52:52;102277.63;;;9.45;88.27
82033;BME280;71595;52.180;4.512;2024-02-04T07:55:18;102275.41;;;9.47;87.82
82033;BME280;71595;52.180;4.512;2024-02-04T07:57:43;102272.13;;;9.45;87.98
82033;BME280;71595;52.180;4.512;2024-02-04T08:00:08;102268.84;;;9.43;87.77
82033;BME280;71595;52.180;4.512;2024-02-04T08:02:36;102264.22;;;9.38;87.63
82033;BME280;71595;52.180;4.512;2024-02-04T08:05:02;102270.84;;;9.37;87.91
82033;BME280;71595;52.180;4.512;2024-02-04T08:07:28;102269.19;;;9.36;88.26
82033;BME280;71595;52.180;4.512;2024-02-04T08:09:53;102266.75;;;9.34;88.36
82033;BME280;71595;52.180;4.512;2024-02-04T08:12:18;102267.28;;;9.37;88.39
82033;BME280;71595;52.180;4.512;2024-02-04T08:14:44;102272.50;;;9.38;88.46
82033;BME280;71595;52.180;4.512;2024-02-04T08:17:09;102270.25;;;9.40;88.52
82033;BME280;71595;52.180;4.512;2024-02-04T08:19:35;102267.81;;;9.39;88.28
82033;BME280;71595;52.180;4.512;2024-02-04T08:22:00;102268.59;;;9.39;88.47
82033;BME280;71595;52.180;4.512;2024-02-04T08:24:25;102260.88;;;9.41;88.45
82033;BME280;71595;52.180;4.512;2024-02-04T08:26:51;102255.88;;;9.43;88.36
82033;BME280;71595;52.180;4.512;2024-02-04T08:29:16;102259.69;;;9.47;88.51
82033;BME280;71595;52.180;4.512;2024-02-04T08:31:41;102259.06;;;9.50;88.32
82033;BME280;71595;52.180;4.512;2024-02-04T08:34:06;102255.19;;;9.51;88.32
82033;BME280;71595;52.180;4.512;2024-02-04T08:36:32;102249.59;;;9.57;88.29
82033;BME280;71595;52.180;4.512;2024-02-04T08:38:57;102243.78;;;9.58;88.31
82033;BME280;71595;52.180;4.512;2024-02-04T08:41:24;102233.59;;;9.59;88.01
82033;BME280;71595;52.180;4.512;2024-02-04T08:43:49;102239.13;;;9.59;88.32
82033;BME280;71595;52.180;4.512;2024-02-04T08:46:14;102246.25;;;9.60;88.16
82033;BME280;71595;52.180;4.512;2024-02-04T08:48:41;102244.63;;;9.59;88.62
82033;BME280;71595;52.180;4.512;2024-02-04T08:51:13;102242.38;;;9.61;88.34
82033;BME280;71595;52.180;4.512;2024-02-04T08:53:41;102243.44;;;9.65;88.31
82033;BME280;71595;52.180;4.512;2024-02-04T08:56:08;102236.25;;;9.64;88.01
82033;BME280;71595;52.180;4.512;2024-02-04T08:58:34;102248.34;;;9.68;87.86
82033;BME280;71595;52.180;4.512;2024-02-04T09:00:59;102251.91;;;9.68;88.00
82033;BME280;71595;52.180;4.512;2024-02-04T09:03:24;102249.69;;;9.70;87.70
82033;BME280;71595;52.180;4.512;2024-02-04T09:05:50;102254.09;;;9.71;87.56
82033;BME280;71595;52.180;4.512;2024-02-04T09:08:15;102265.31;;;9.75;87.12
82033;BME280;71595;52.180;4.512;2024-02-04T09:10:41;102255.44;;;9.74;87.41
82033;BME280;71595;52.180;4.512;2024-02-04T09:13:06;102251.22;;;9.77;87.48
82033;BME280;71595;52.180;4.512;2024-02-04T09:15:31;102255.66;;;9.78;87.24
82033;BME280;71595;52.180;4.512;2024-02-04T09:17:57;102246.56;;;9.77;86.97
82033;BME280;71595;52.180;4.512;2024-02-04T09:20:22;102250.44;;;9.76;86.94
82033;BME280;71595;52.180;4.512;2024-02-04T09:22:47;102255.44;;;9.74;87.24
82033;BME280;71595;52.180;4.512;2024-02-04T09:25:13;102279.66;;;9.77;87.43
82033;BME280;71595;52.180;4.512;2024-02-04T09:27:38;102260.06;;;9.79;87.00
82033;BME280;71595;52.180;4.512;2024-02-04T09:30:03;102245.97;;;9.80;87.10
82033;BME280;71595;52.180;4.512;2024-02-04T09:32:29;102246.47;;;9.82;86.73
82033;BME280;71595;52.180;4.512;2024-02-04T09:34:54;102265.94;;;9.91;86.11
82033;BME280;71595;52.180;4.512;2024-02-04T09:37:19;102243.91;;;9.86;86.23
82033;BME280;71595;52.180;4.512;2024-02-04T09:39:45;102240.84;;;9.87;86.45
82033;BME280;71595;52.180;4.512;2024-02-04T09:42:21;102246.16;;;9.84;86.57
82033;BME280;71595;52.180;4.512;2024-02-04T09:44:48;102247.88;;;9.80;86.48
82033;BME280;71595;52.180;4.512;2024-02-04T09:47:14;102248.13;;;9.83;86.55
82033;BME280;71595;52.180;4.512;2024-02-04T09:49:46;102252.50;;;9.84;86.95
82033;BME280;71595;52.180;4.512;2024-02-04T09:52:12;102253.63;;;9.83;87.08
82033;BME280;71595;52.180;4.512;2024-02-04T09:54:45;102240.84;;;9.87;87.16
82033;BME280;71595;52.180;4.512;2024-02-04T09:57:11;102242.50;;;9.88;87.41
82033;BME280;71595;52.180;4.512;2024-02-04T09:59:37;102248.53;;;9.90;87.47
82033;BME280;71595;52.180;4.512;2024-02-04T10:02:03;102246.91;;;9.89;87.31
82033;BME280;71595;52.180;4.512;2024-02-04T10:04:29;102232.28;;;9.89;87.39
82033;BME280;71595;52.180;4.512;2024-02-04T10:06:54;102256.22;;;9.94;87.39
82033;BME280;71595;52.180;4.512;2024-02-04T10:09:20;102245.78;;;9.90;87.56
82033;BME280;71595;52.180;4.512;2024-02-04T10:11:45;102242.88;;;10.01;87.49
82033;BME280;71595;52.180;4.512;2024-02-04T10:14:11;102246.44;;;10.01;87.29
82033;BME280;71595;52.180;4.512;2024-02-04T10:16:37;102238.44;;;10.00;87.21
82033;BME280;71595;52.180;4.512;2024-02-04T10:19:02;102249.19;;;10.01;87.29
82033;BME280;71595;52.180;4.512;2024-02-04T10:21:28;102255.00;;;10.00;87.35
82033;BME280;71595;52.180;4.512;2024-02-04T10:23:53;102259.50;;;9.96;88.06
82033;BME280;71595;52.180;4.512;2024-02-04T10:26:20;102270.31;;;9.92;88.01
82033;BME280;71595;52.180;4.512;2024-02-04T10:28:47;102278.88;;;9.90;88.12
82033;BME280;71595;52.180;4.512;2024-02-04T10:31:13;102262.94;;;9.87;88.55
82033;BME280;71595;52.180;4.512;2024-02-04T10:33:39;102272.94;;;9.83;88.16
82033;BME280;71595;52.180;4.512;2024-02-04T10:36:05;102268.63;;;9.77;88.49
82033;BME280;71595;52.180;4.512;2024-02-04T10:38:31;102265.56;;;9.79;88.13
82033;BME280;71595;52.180;4.512;2024-02-04T10:40:59;102263.47;;;9.70;88.54
82033;BME280;71595;52.180;4.512;2024-02-04T10:43:33;102264.91;;;9.68;88.26
82033;BME280;71595;52.180;4.512;2024-02-04T10:46:19;102257.75;;;9.67;88.24
82033;BME280;71595;52.180;4.512;2024-02-04T10:48:54;102267.13;;;9.66;88.05
82033;BME280;71595;52.180;4.512;2024-02-04T10:51:24;102278.75;;;9.63;87.65
82033;BME280;71595;52.180;4.512;2024-02-04T10:53:51;102277.94;;;9.62;87.83
82033;BME280;71595;52.180;4.512;2024-02-04T10:56:22;102265.25;;;9.61;87.69
82033;BME280;71595;52.180;4.512;2024-02-04T10:58:51;102259.97;;;9.65;87.64
82033;BME280;71595;52.180;4.512;2024-02-04T11:01:18;102266.22;;;9.70;87.47
82033;BME280;71595;52.180;4.512;2024-02-04T11:03:45;102260.94;;;9.74;87.63
82033;BME280;71595;52.180;4.512;2024-02-04T11:06:11;102265.78;;;9.82;87.18
82033;BME280;71595;52.180;4.512;2024-02-04T11:08:40;102255.78;;;9.86;87.18
82033;BME280;71595;52.180;4.512;2024-02-04T11:11:06;102261.81;;;9.88;87.34
82033;BME280;71595;52.180;4.512;2024-02-04T11:13:32;102264.78;;;9.92;87.34
82033;BME280;71595;52.180;4.512;2024-02-04T11:16:02;102256.75;;;9.96;87.04
82033;BME280;71595;52.180;4.512;2024-02-04T11:26:38;102232.84;;;10.05;86.74
82033;BME280;71595;52.180;4.512;2024-02-04T11:29:07;102234.38;;;10.11;86.95
82033;BME280;71595;52.180;4.512;2024-02-04T11:31:32;102226.41;;;10.10;86.87
82033;BME280;71595;52.180;4.512;2024-02-04T11:33:58;102223.78;;;10.18;86.20
82033;BME280;71595;52.180;4.512;2024-02-04T11:36:24;102221.53;;;10.20;85.94
82033;BME280;71595;52.180;4.512;2024-02-04T11:38:51;102211.63;;;10.19;86.16
82033;BME280;71595;52.180;4.512;2024-02-04T11:41:23;102229.31;;;10.18;86.29
82033;BME280;71595;52.180;4.512;2024-02-04T11:43:52;102202.50;;;10.19;86.23
82033;BME280;71595;52.180;4.512;2024-02-04T11:46:18;102205.69;;;10.26;85.91
82033;BME280;71595;52.180;4.512;2024-02-04T11:48:52;102214.50;;;10.28;85.95
82033;BME280;71595;52.180;4.512;2024-02-04T11:51:22;102199.88;;;10.28;85.90
82033;BME280;71595;52.180;4.512;2024-02-04T11:53:48;102210.91;;;10.28;86.17
82033;BME280;71595;52.180;4.512;2024-02-04T11:56:14;102203.75;;;10.26;86.03
82033;BME280;71595;52.180;4.512;2024-02-04T11:58:39;102195.88;;;10.20;85.78
82033;BME280;71595;52.180;4.512;2024-02-04T12:01:09;102194.97;;;10.24;85.73
82033;BME280;71595;52.180;4.512;2024-02-04T12:03:35;102184.53;;;10.21;85.77
82033;BME280;71595;52.180;4.512;2024-02-04T12:06:02;102193.13;;;10.20;85.87
82033;BME280;71595;52.180;4.512;2024-02-04T12:08:30;102214.38;;;10.19;85.80
82033;BME280;71595;52.180;4.512;2024-02-04T12:10:57;102182.88;;;10.20;85.94
82033;BME280;71595;52.180;4.512;2024-02-04T12:13:23;102187.50;;;10.25;85.87
82033;BME280;71595;52.180;4.512;2024-02-04T12:15:49;102180.03;;;10.25;85.98
82033;BME280;71595;52.180;4.512;2024-02-04T12:18:15;102184.41;;;10.26;86.06
82033;BME280;71595;52.180;4.512;2024-02-04T12:20:46;102177.19;;;10.31;86.21
82033;BME280;71595;52.180;4.512;2024-02-04T12:23:12;102179.25;;;10.39;85.76
82033;BME280;71595;52.180;4.512;2024-02-04T12:25:38;102189.06;;;10.45;85.82
82033;BME280;71595;52.180;4.512;2024-02-04T12:28:03;102171.91;;;10.48;85.77
82033;BME280;71595;52.180;4.512;2024-02-04T12:30:30;102191.75;;;10.50;85.79
82033;BME280;71595;52.180;4.512;2024-02-04T12:33:00;102157.66;;;10.55;85.55
82033;BME280;71595;52.180;4.512;2024-02-04T12:35:26;102193.28;;;10.56;85.63
82033;BME280;71595;52.180;4.512;2024-02-04T12:37:54;102173.84;;;10.61;85.23
82033;BME280;71595;52.180;4.512;2024-02-04T12:40:24;102183.06;;;10.57;85.24
82033;BME280;71595;52.180;4.512;2024-02-04T12:42:54;102166.47;;;10.57;85.40
82033;BME280;71595;52.180;4.512;2024-02-04T12:45:21;102173.13;;;10.56;85.34
82033;BME280;71595;52.180;4.512;2024-02-04T12:47:51;102193.81;;;10.58;85.09
82033;BME280;71595;52.180;4.512;2024-02-04T12:50:17;102190.50;;;10.56;85.07
82033;BME280;71595;52.180;4.512;2024-02-04T12:52:47;102170.66;;;10.54;85.21
82033;BME280;71595;52.180;4.512;2024-02-04T12:55:26;102181.53;;;10.51;85.09
82033;BME280;71595;52.180;4.512;2024-02-04T13:00:29;102172.63;;;10.40;84.76
82033;BME280;71595;52.180;4.512;2024-02-04T13:02:54;102163.81;;;10.38;85.18